sensor_id;sensor_type;location;lat;lon;timestamp;temperature;humidity
569;DHT22;269;48.884;9.192;2022-07-23T00:00:22;25.40;99.90
569;DHT22;269;48.884;9.192;2022-07-23T00:02:49;25.30;99.90
569;DHT22;269;48.884;9.192;2022-07-23T00:05:18;25.30;99.00
569;DHT22;269;48.884;9.192;2022-07-23T00:07:45;25.30;98.60
569;DHT22;269;48.884;9.192;2022-07-23T00:10:12;25.30;98.50
569;DHT22;269;48.884;9.192;2022-07-23T00:12:39;25.30;98.00
569;DHT22;269;48.884;9.192;2022-07-23T00:15:07;25.30;97.90
569;DHT22;269;48.884;9.192;2022-07-23T00:17:35;25.30;97.80
569;DHT22;269;48.884;9.192;2022-07-23T00:20:03;25.30;97.70
569;DHT22;269;48.884;9.192;2022-07-23T00:22:31;25.20;97.60
569;DHT22;269;48.884;9.192;2022-07-23T00:24:59;25.20;97.50
569;DHT22;269;48.884;9.192;2022-07-23T00:27:26;25.20;97.60
569;DHT22;269;48.884;9.192;2022-07-23T00:29:53;25.20;97.60
569;DHT22;269;48.884;9.192;2022-07-23T00:32:20;25.10;97.70
569;DHT22;269;48.884;9.192;2022-07-23T00:34:47;25.20;97.60
569;DHT22;269;48.884;9.192;2022-07-23T00:37:17;25.00;97.70
569;DHT22;269;48.884;9.192;2022-07-23T00:39:45;25.00;97.70
569;DHT22;269;48.884;9.192;2022-07-23T00:42:12;25.00;97.70
569;DHT22;269;48.884;9.192;2022-07-23T00:44:39;25.00;97.70
569;DHT22;269;48.884;9.192;2022-07-23T00:47:07;24.90;97.80
569;DHT22;269;48.884;9.192;2022-07-23T00:49:34;24.90;97.80
569;DHT22;269;48.884;9.192;2022-07-23T00:52:02;24.90;97.90
569;DHT22;269;48.884;9.192;2022-07-23T00:54:30;24.90;98.00
569;DHT22;269;48.884;9.192;2022-07-23T00:56:58;24.80;98.10
569;DHT22;269;48.884;9.192;2022-07-23T00:59:25;24.70;98.10
569;DHT22;269;48.884;9.192;2022-07-23T01:01:52;24.70;98.00
569;DHT22;269;48.884;9.192;2022-07-23T01:04:19;24.60;98.10
569;DHT22;269;48.884;9.192;2022-07-23T01:06:46;24.60;98.10
569;DHT22;269;48.884;9.192;2022-07-23T01:09:13;24.70;98.20
569;DHT22;269;48.884;9.192;2022-07-23T01:11:41;24.60;98.20
569;DHT22;269;48.884;9.192;2022-07-23T01:14:10;24.50;98.20
569;DHT22;269;48.884;9.192;2022-07-23T01:16:39;24.50;98.40
569;DHT22;269;48.884;9.192;2022-07-23T01:19:06;24.50;98.40
569;DHT22;269;48.884;9.192;2022-07-23T01:21:36;24.50;98.50
569;DHT22;269;48.884;9.192;2022-07-23T01:24:06;24.50;98.50
569;DHT22;269;48.884;9.192;2022-07-23T01:26:33;24.40;98.50
569;DHT22;269;48.884;9.192;2022-07-23T01:29:00;24.50;98.60
569;DHT22;269;48.884;9.192;2022-07-23T01:31:27;24.50;98.80
569;DHT22;269;48.884;9.192;2022-07-23T01:33:55;24.40;98.90
569;DHT22;269;48.884;9.192;2022-07-23T01:36:22;24.40;99.00
569;DHT22;269;48.884;9.192;2022-07-23T01:38:50;24.40;99.20
569;DHT22;269;48.884;9.192;2022-07-23T01:41:18;24.40;99.30
569;DHT22;269;48.884;9.192;2022-07-23T01:43:45;24.30;99.30
569;DHT22;269;48.884;9.192;2022-07-23T01:46:12;24.30;99.40
569;DHT22;269;48.884;9.192;2022-07-23T01:48:39;24.30;99.50
569;DHT22;269;48.884;9.192;2022-07-23T01:51:06;24.30;99.60
569;DHT22;269;48.884;9.192;2022-07-23T01:53:34;24.30;99.70
569;DHT22;269;48.884;9.192;2022-07-23T01:56:01;24.30;99.90
569;DHT22;269;48.884;9.192;2022-07-23T01:58:30;24.20;99.90
569;DHT22;269;48.884;9.192;2022-07-23T02:00:57;24.20;99.90
569;DHT22;269;48.884;9.192;2022-07-23T02:03:25;24.10;99.90
569;DHT22;269;48.884;9.192;2022-07-23T02:05:52;24.00;99.90
569;DHT22;269;48.884;9.192;2022-07-23T02:08:19;24.00;99.90
569;DHT22;269;48.884;9.192;2022-07-23T02:10:46;23.90;99.90
569;DHT22;269;48.884;9.192;2022-07-23T02:13:14;23.90;99.90
569;DHT22;269;48.884;9.192;2022-07-23T02:15:42;24.00;99.90
569;DHT22;269;48.884;9.192;2022-07-23T02:18:10;23.90;99.90
569;DHT22;269;48.884;9.192;2022-07-23T02:20:37;23.90;99.90
569;DHT22;269;48.884;9.192;2022-07-23T02:23:04;23.70;99.90
569;DHT22;269;48.884;9.192;2022-07-23T02:25:32;23.60;99.90
569;DHT22;269;48.884;9.192;2022-07-23T02:27:59;23.40;99.90
569;DHT22;269;48.884;9.192;2022-07-23T02:30:27;23.30;99.90
569;DHT22;269;48.884;9.192;2022-07-23T02:32:55;23.20;99.90
569;DHT22;269;48.884;9.192;2022-07-23T02:35:22;23.10;99.90
569;DHT22;269;48.884;9.192;2022-07-23T02:37:49;23.00;99.90
569;DHT22;269;48.884;9.192;2022-07-23T02:40:17;22.90;99.90
569;DHT22;269;48.884;9.192;2022-07-23T02:42:44;22.90;99.90
569;DHT22;269;48.884;9.192;2022-07-23T02:45:13;22.90;99.90
569;DHT22;269;48.884;9.192;2022-07-23T02:47:40;23.00;99.90
569;DHT22;269;48.884;9.192;2022-07-23T02:50:09;23.00;99.90
569;DHT22;269;48.884;9.192;2022-07-23T02:52:38;23.00;99.90
569;DHT22;269;48.884;9.192;2022-07-23T02:55:06;23.00;99.90
569;DHT22;269;48.884;9.192;2022-07-23T02:57:33;23.00;99.90
569;DHT22;269;48.884;9.192;2022-07-23T03:00:00;23.00;99.90
569;DHT22;269;48.884;9.192;2022-07-23T03:02:27;22.90;99.90
569;DHT22;269;48.884;9.192;2022-07-23T03:04:55;22.90;99.90
569;DHT22;269;48.884;9.192;2022-07-23T03:07:23;22.90;99.90
569;DHT22;269;48.884;9.192;2022-07-23T03:09:51;22.90;99.90
569;DHT22;269;48.884;9.192;2022-07-23T03:12:18;23.00;99.90
569;DHT22;269;48.884;9.192;2022-07-23T03:14:45;22.90;99.90
569;DHT22;269;48.884;9.192;2022-07-23T03:17:12;23.00;99.90
569;DHT22;269;48.884;9.192;2022-07-23T03:19:39;23.00;99.90
569;DHT22;269;48.884;9.192;2022-07-23T03:22:07;23.00;99.90
569;DHT22;269;48.884;9.192;2022-07-23T03:24:35;23.00;99.90
569;DHT22;269;48.884;9.192;2022-07-23T03:27:21;23.00;99.90
569;DHT22;269;48.884;9.192;2022-07-23T03:29:48;22.90;99.90
569;DHT22;269;48.884;9.192;2022-07-23T03:32:15;22.80;99.90
569;DHT22;269;48.884;9.192;2022-07-23T03:34:43;22.70;99.90
569;DHT22;269;48.884;9.192;2022-07-23T03:37:10;22.60;99.90
569;DHT22;269;48.884;9.192;2022-07-23T03:39:39;22.60;99.90
569;DHT22;269;48.884;9.192;2022-07-23T03:42:06;22.50;99.90
569;DHT22;269;48.884;9.192;2022-07-23T03:44:34;22.40;99.90
569;DHT22;269;48.884;9.192;2022-07-23T03:47:02;22.30;99.90
569;DHT22;269;48.884;9.192;2022-07-23T03:49:29;22.30;99.90
569;DHT22;269;48.884;9.192;2022-07-23T03:51:56;22.20;99.90
569;DHT22;269;48.884;9.192;2022-07-23T03:54:23;22.20;99.90
569;DHT22;269;48.884;9.192;2022-07-23T03:56:52;22.20;99.90
569;DHT22;269;48.884;9.192;2022-07-23T03:59:19;22.20;99.90
569;DHT22;269;48.884;9.192;2022-07-23T04:01:46;22.20;99.90
569;DHT22;269;48.884;9.192;2022-07-23T04:04:13;22.10;99.90
569;DHT22;269;48.884;9.192;2022-07-23T04:06:40;22.10;99.90
569;DHT22;269;48.884;9.192;2022-07-23T04:09:07;22.10;99.90
569;DHT22;269;48.884;9.192;2022-07-23T04:11:35;22.10;99.90
569;DHT22;269;48.884;9.192;2022-07-23T04:14:04;22.10;99.90
569;DHT22;269;48.884;9.192;2022-07-23T04:16:31;22.10;99.90
569;DHT22;269;48.884;9.192;2022-07-23T04:18:58;22.10;99.90
569;DHT22;269;48.884;9.192;2022-07-23T04:21:25;22.10;99.90
569;DHT22;269;48.884;9.192;2022-07-23T04:23:52;22.20;99.90
569;DHT22;269;48.884;9.192;2022-07-23T04:26:20;22.20;99.90
569;DHT22;269;48.884;9.192;2022-07-23T04:28:47;22.20;99.90
569;DHT22;269;48.884;9.192;2022-07-23T04:31:15;22.40;99.90
569;DHT22;269;48.884;9.192;2022-07-23T04:33:44;22.40;99.90
569;DHT22;269;48.884;9.192;2022-07-23T04:36:10;22.50;99.90
569;DHT22;269;48.884;9.192;2022-07-23T04:38:37;22.50;99.90
569;DHT22;269;48.884;9.192;2022-07-23T04:41:05;22.50;99.90
569;DHT22;269;48.884;9.192;2022-07-23T04:43:32;22.50;99.90
569;DHT22;269;48.884;9.192;2022-07-23T04:45:59;22.50;99.90
569;DHT22;269;48.884;9.192;2022-07-23T04:48:28;22.40;99.90
569;DHT22;269;48.884;9.192;2022-07-23T04:50:55;22.40;99.90
569;DHT22;269;48.884;9.192;2022-07-23T04:53:21;22.40;99.90
569;DHT22;269;48.884;9.192;2022-07-23T04:55:49;22.50;99.90
569;DHT22;269;48.884;9.192;2022-07-23T04:58:16;22.50;99.90
569;DHT22;269;48.884;9.192;2022-07-23T05:00:43;22.60;99.90
569;DHT22;269;48.884;9.192;2022-07-23T05:03:10;22.70;99.90
569;DHT22;269;48.884;9.192;2022-07-23T05:05:39;22.70;99.90
569;DHT22;269;48.884;9.192;2022-07-23T05:08:07;22.70;99.90
569;DHT22;269;48.884;9.192;2022-07-23T05:10:34;22.80;99.90
569;DHT22;269;48.884;9.192;2022-07-23T05:13:01;22.80;99.90
569;DHT22;269;48.884;9.192;2022-07-23T05:15:28;22.80;99.90
569;DHT22;269;48.884;9.192;2022-07-23T05:17:56;22.90;99.90
569;DHT22;269;48.884;9.192;2022-07-23T05:20:23;22.90;99.90
569;DHT22;269;48.884;9.192;2022-07-23T05:22:51;23.00;99.90
569;DHT22;269;48.884;9.192;2022-07-23T05:25:18;23.00;99.90
569;DHT22;269;48.884;9.192;2022-07-23T05:27:45;23.10;99.90
569;DHT22;269;48.884;9.192;2022-07-23T05:30:13;23.20;99.90
569;DHT22;269;48.884;9.192;2022-07-23T05:32:40;23.40;99.90
569;DHT22;269;48.884;9.192;2022-07-23T05:35:07;23.50;99.90
569;DHT22;269;48.884;9.192;2022-07-23T05:37:35;23.60;99.90
569;DHT22;269;48.884;9.192;2022-07-23T05:40:05;23.60;99.90
569;DHT22;269;48.884;9.192;2022-07-23T05:42:33;23.70;99.90
569;DHT22;269;48.884;9.192;2022-07-23T05:45:00;23.80;99.90
569;DHT22;269;48.884;9.192;2022-07-23T05:47:28;23.90;99.90
569;DHT22;269;48.884;9.192;2022-07-23T05:49:55;23.90;99.90
569;DHT22;269;48.884;9.192;2022-07-23T05:52:25;24.00;99.90
569;DHT22;269;48.884;9.192;2022-07-23T05:54:55;24.20;99.90
569;DHT22;269;48.884;9.192;2022-07-23T05:57:23;24.20;99.90
569;DHT22;269;48.884;9.192;2022-07-23T05:59:50;24.30;99.90
569;DHT22;269;48.884;9.192;2022-07-23T06:02:18;24.30;99.90
569;DHT22;269;48.884;9.192;2022-07-23T06:04:45;24.30;99.90
569;DHT22;269;48.884;9.192;2022-07-23T06:07:12;24.30;99.90
569;DHT22;269;48.884;9.192;2022-07-23T06:09:39;24.30;99.90
569;DHT22;269;48.884;9.192;2022-07-23T06:12:07;24.20;99.90
569;DHT22;269;48.884;9.192;2022-07-23T06:14:35;24.20;99.90
569;DHT22;269;48.884;9.192;2022-07-23T06:17:02;24.20;99.90
569;DHT22;269;48.884;9.192;2022-07-23T06:19:30;23.90;99.90
569;DHT22;269;48.884;9.192;2022-07-23T06:21:57;24.00;99.90
569;DHT22;269;48.884;9.192;2022-07-23T06:24:24;24.10;99.90
569;DHT22;269;48.884;9.192;2022-07-23T06:26:51;24.10;99.90
569;DHT22;269;48.884;9.192;2022-07-23T06:29:18;24.10;99.90
569;DHT22;269;48.884;9.192;2022-07-23T06:31:47;24.20;99.90
569;DHT22;269;48.884;9.192;2022-07-23T06:34:14;24.30;99.90
569;DHT22;269;48.884;9.192;2022-07-23T06:36:41;24.30;99.90
569;DHT22;269;48.884;9.192;2022-07-23T06:39:08;24.50;99.90
569;DHT22;269;48.884;9.192;2022-07-23T06:41:35;24.60;99.90
569;DHT22;269;48.884;9.192;2022-07-23T06:44:02;24.70;99.90
569;DHT22;269;48.884;9.192;2022-07-23T06:46:30;24.80;99.90
569;DHT22;269;48.884;9.192;2022-07-23T06:48:58;24.90;99.90
569;DHT22;269;48.884;9.192;2022-07-23T06:51:25;24.90;99.90
569;DHT22;269;48.884;9.192;2022-07-23T06:53:52;24.90;99.90
569;DHT22;269;48.884;9.192;2022-07-23T06:56:19;24.80;99.90
569;DHT22;269;48.884;9.192;2022-07-23T06:58:49;24.70;99.90
569;DHT22;269;48.884;9.192;2022-07-23T07:01:16;24.60;99.90
569;DHT22;269;48.884;9.192;2022-07-23T07:03:43;24.40;99.90
569;DHT22;269;48.884;9.192;2022-07-23T07:06:12;24.20;99.90
569;DHT22;269;48.884;9.192;2022-07-23T07:08:40;24.00;99.90
569;DHT22;269;48.884;9.192;2022-07-23T07:11:09;23.80;99.90
569;DHT22;269;48.884;9.192;2022-07-23T07:13:36;23.50;99.90
569;DHT22;269;48.884;9.192;2022-07-23T07:16:04;23.40;99.90
569;DHT22;269;48.884;9.192;2022-07-23T07:18:31;23.10;99.90
569;DHT22;269;48.884;9.192;2022-07-23T07:20:58;22.90;99.90
569;DHT22;269;48.884;9.192;2022-07-23T07:23:26;22.70;99.90
569;DHT22;269;48.884;9.192;2022-07-23T07:25:53;22.60;99.90
569;DHT22;269;48.884;9.192;2022-07-23T07:28:20;22.50;99.90
569;DHT22;269;48.884;9.192;2022-07-23T07:30:48;22.40;99.90
569;DHT22;269;48.884;9.192;2022-07-23T07:33:15;22.40;99.90
569;DHT22;269;48.884;9.192;2022-07-23T07:35:42;22.50;99.90
569;DHT22;269;48.884;9.192;2022-07-23T07:38:09;22.20;99.90
569;DHT22;269;48.884;9.192;2022-07-23T07:40:37;22.10;99.90
569;DHT22;269;48.884;9.192;2022-07-23T07:43:05;22.20;99.90
569;DHT22;269;48.884;9.192;2022-07-23T07:45:32;22.20;99.90
569;DHT22;269;48.884;9.192;2022-07-23T07:47:59;22.40;99.90
569;DHT22;269;48.884;9.192;2022-07-23T07:50:26;22.70;99.90
569;DHT22;269;48.884;9.192;2022-07-23T07:52:53;22.90;99.90
569;DHT22;269;48.884;9.192;2022-07-23T07:55:20;23.30;99.90
569;DHT22;269;48.884;9.192;2022-07-23T07:57:49;23.20;99.90
569;DHT22;269;48.884;9.192;2022-07-23T08:00:17;23.30;99.90
569;DHT22;269;48.884;9.192;2022-07-23T08:02:45;23.20;99.90
569;DHT22;269;48.884;9.192;2022-07-23T08:05:13;23.00;99.90
569;DHT22;269;48.884;9.192;2022-07-23T08:07:41;22.90;99.90
569;DHT22;269;48.884;9.192;2022-07-23T08:10:09;22.70;99.90
569;DHT22;269;48.884;9.192;2022-07-23T08:12:40;22.60;99.90
569;DHT22;269;48.884;9.192;2022-07-23T08:15:12;22.40;99.90
569;DHT22;269;48.884;9.192;2022-07-23T08:17:40;22.20;99.90
569;DHT22;269;48.884;9.192;2022-07-23T08:20:09;22.10;99.90
569;DHT22;269;48.884;9.192;2022-07-23T08:22:45;22.00;99.90
569;DHT22;269;48.884;9.192;2022-07-23T08:25:13;21.90;99.90
569;DHT22;269;48.884;9.192;2022-07-23T08:27:40;21.80;99.90
569;DHT22;269;48.884;9.192;2022-07-23T08:30:08;21.80;99.90
569;DHT22;269;48.884;9.192;2022-07-23T08:32:53;21.70;99.90
569;DHT22;269;48.884;9.192;2022-07-23T08:35:25;21.70;99.90
569;DHT22;269;48.884;9.192;2022-07-23T08:37:53;22.10;99.90
569;DHT22;269;48.884;9.192;2022-07-23T08:40:21;22.20;99.90
569;DHT22;269;48.884;9.192;2022-07-23T08:42:49;22.50;99.90
569;DHT22;269;48.884;9.192;2022-07-23T08:45:18;22.50;99.90
569;DHT22;269;48.884;9.192;2022-07-23T08:47:49;22.40;99.90
569;DHT22;269;48.884;9.192;2022-07-23T08:50:18;22.60;99.90
569;DHT22;269;48.884;9.192;2022-07-23T08:52:45;22.80;99.90
569;DHT22;269;48.884;9.192;2022-07-23T08:55:12;23.10;99.90
569;DHT22;269;48.884;9.192;2022-07-23T08:57:39;23.60;99.90
569;DHT22;269;48.884;9.192;2022-07-23T09:00:07;24.30;99.90
569;DHT22;269;48.884;9.192;2022-07-23T09:02:39;25.00;99.90
569;DHT22;269;48.884;9.192;2022-07-23T09:05:07;25.50;99.90
569;DHT22;269;48.884;9.192;2022-07-23T09:07:37;26.20;99.90
569;DHT22;269;48.884;9.192;2022-07-23T09:10:08;27.00;99.90
569;DHT22;269;48.884;9.192;2022-07-23T09:12:38;27.90;99.90
569;DHT22;269;48.884;9.192;2022-07-23T09:15:07;29.00;99.90
569;DHT22;269;48.884;9.192;2022-07-23T09:17:38;29.70;99.90
569;DHT22;269;48.884;9.192;2022-07-23T09:20:11;30.20;98.70
569;DHT22;269;48.884;9.192;2022-07-23T09:22:40;30.00;96.90
569;DHT22;269;48.884;9.192;2022-07-23T09:25:12;29.50;96.90
569;DHT22;269;48.884;9.192;2022-07-23T09:27:51;28.90;97.90
569;DHT22;269;48.884;9.192;2022-07-23T09:30:20;28.30;98.30
569;DHT22;269;48.884;9.192;2022-07-23T09:33:05;28.00;99.60
569;DHT22;269;48.884;9.192;2022-07-23T09:35:48;28.30;98.20
569;DHT22;269;48.884;9.192;2022-07-23T09:38:18;28.70;98.80
569;DHT22;269;48.884;9.192;2022-07-23T09:40:47;29.00;97.70
569;DHT22;269;48.884;9.192;2022-07-23T09:43:31;29.20;96.90
569;DHT22;269;48.884;9.192;2022-07-23T09:46:16;29.40;96.30
569;DHT22;269;48.884;9.192;2022-07-23T09:48:44;29.50;96.50
569;DHT22;269;48.884;9.192;2022-07-23T09:51:11;29.80;95.60
569;DHT22;269;48.884;9.192;2022-07-23T09:53:40;30.20;94.10
569;DHT22;269;48.884;9.192;2022-07-23T09:56:07;30.50;93.20
569;DHT22;269;48.884;9.192;2022-07-23T09:58:39;30.50;93.30
569;DHT22;269;48.884;9.192;2022-07-23T10:01:15;30.80;93.20
569;DHT22;269;48.884;9.192;2022-07-23T10:03:43;31.40;93.20
569;DHT22;269;48.884;9.192;2022-07-23T10:06:13;32.00;91.50
569;DHT22;269;48.884;9.192;2022-07-23T10:08:42;32.40;91.10
569;DHT22;269;48.884;9.192;2022-07-23T10:11:11;32.70;88.90
569;DHT22;269;48.884;9.192;2022-07-23T10:13:40;33.00;89.70
569;DHT22;269;48.884;9.192;2022-07-23T10:16:19;33.20;87.10
569;DHT22;269;48.884;9.192;2022-07-23T10:18:46;33.00;87.10
569;DHT22;269;48.884;9.192;2022-07-23T10:21:18;32.50;88.00
569;DHT22;269;48.884;9.192;2022-07-23T10:24:01;32.50;89.60
569;DHT22;269;48.884;9.192;2022-07-23T10:26:36;32.80;89.20
569;DHT22;269;48.884;9.192;2022-07-23T10:29:19;33.20;88.00
569;DHT22;269;48.884;9.192;2022-07-23T10:31:56;33.60;84.90
569;DHT22;269;48.884;9.192;2022-07-23T10:34:30;33.90;83.60
569;DHT22;269;48.884;9.192;2022-07-23T10:37:07;34.20;83.10
569;DHT22;269;48.884;9.192;2022-07-23T10:39:40;34.50;80.50
569;DHT22;269;48.884;9.192;2022-07-23T10:42:11;34.70;78.60
569;DHT22;269;48.884;9.192;2022-07-23T10:44:41;34.60;78.90
569;DHT22;269;48.884;9.192;2022-07-23T10:47:09;34.70;79.30
569;DHT22;269;48.884;9.192;2022-07-23T10:49:51;34.80;79.00
569;DHT22;269;48.884;9.192;2022-07-23T10:52:23;34.90;73.20
569;DHT22;269;48.884;9.192;2022-07-23T10:54:54;34.30;73.20
569;DHT22;269;48.884;9.192;2022-07-23T10:57:29;33.60;70.70
569;DHT22;269;48.884;9.192;2022-07-23T11:00:15;33.50;73.90
569;DHT22;269;48.884;9.192;2022-07-23T11:02:45;33.40;75.70
569;DHT22;269;48.884;9.192;2022-07-23T11:05:14;33.30;73.50
569;DHT22;269;48.884;9.192;2022-07-23T11:08:11;32.80;74.20
569;DHT22;269;48.884;9.192;2022-07-23T11:10:44;32.20;77.70
569;DHT22;269;48.884;9.192;2022-07-23T11:13:46;32.20;78.40
569;DHT22;269;48.884;9.192;2022-07-23T11:16:28;32.80;78.50
569;DHT22;269;48.884;9.192;2022-07-23T11:18:58;33.20;73.90
569;DHT22;269;48.884;9.192;2022-07-23T11:21:46;33.10;74.90
569;DHT22;269;48.884;9.192;2022-07-23T11:24:16;33.30;75.10
569;DHT22;269;48.884;9.192;2022-07-23T11:26:48;33.50;74.40
569;DHT22;269;48.884;9.192;2022-07-23T11:29:44;33.60;73.30
569;DHT22;269;48.884;9.192;2022-07-23T11:32:27;33.90;72.60
569;DHT22;269;48.884;9.192;2022-07-23T11:34:55;33.90;70.60
569;DHT22;269;48.884;9.192;2022-07-23T11:37:30;33.60;71.10
569;DHT22;269;48.884;9.192;2022-07-23T11:39:58;33.40;71.50
569;DHT22;269;48.884;9.192;2022-07-23T11:42:27;33.50;72.70
569;DHT22;269;48.884;9.192;2022-07-23T11:44:54;33.60;72.00
569;DHT22;269;48.884;9.192;2022-07-23T11:47:23;33.70;69.30
569;DHT22;269;48.884;9.192;2022-07-23T11:49:55;33.40;70.80
569;DHT22;269;48.884;9.192;2022-07-23T11:52:23;33.30;72.20
569;DHT22;269;48.884;9.192;2022-07-23T11:54:53;33.50;72.80
569;DHT22;269;48.884;9.192;2022-07-23T11:57:23;33.60;72.20
569;DHT22;269;48.884;9.192;2022-07-23T11:59:54;33.80;71.80
569;DHT22;269;48.884;9.192;2022-07-23T12:02:22;33.90;71.00
569;DHT22;269;48.884;9.192;2022-07-23T12:04:52;33.90;72.00
569;DHT22;269;48.884;9.192;2022-07-23T12:07:24;33.90;72.30
569;DHT22;269;48.884;9.192;2022-07-23T12:09:52;33.80;68.90
569;DHT22;269;48.884;9.192;2022-07-23T12:12:19;33.90;70.00
569;DHT22;269;48.884;9.192;2022-07-23T15:05:41;37.00;56.10
569;DHT22;269;48.884;9.192;2022-07-23T15:08:09;36.80;56.40
569;DHT22;269;48.884;9.192;2022-07-23T15:10:36;36.20;56.30
569;DHT22;269;48.884;9.192;2022-07-23T15:13:03;35.50;57.40
569;DHT22;269;48.884;9.192;2022-07-23T15:15:31;34.90;58.60
569;DHT22;269;48.884;9.192;2022-07-23T15:17:58;34.70;59.30
569;DHT22;269;48.884;9.192;2022-07-23T15:20:25;34.80;59.40
569;DHT22;269;48.884;9.192;2022-07-23T15:22:53;34.90;58.70
569;DHT22;269;48.884;9.192;2022-07-23T15:25:20;35.00;59.10
569;DHT22;269;48.884;9.192;2022-07-23T15:27:48;35.40;59.20
569;DHT22;269;48.884;9.192;2022-07-23T15:30:15;35.60;58.80
569;DHT22;269;48.884;9.192;2022-07-23T15:32:42;35.60;58.90
569;DHT22;269;48.884;9.192;2022-07-23T15:35:09;35.70;58.80
569;DHT22;269;48.884;9.192;2022-07-23T15:37:36;36.00;58.20
569;DHT22;269;48.884;9.192;2022-07-23T15:40:06;35.90;58.80
569;DHT22;269;48.884;9.192;2022-07-23T15:42:34;35.80;58.20
569;DHT22;269;48.884;9.192;2022-07-23T15:45:02;35.60;58.00
569;DHT22;269;48.884;9.192;2022-07-23T15:47:29;35.30;58.30
569;DHT22;269;48.884;9.192;2022-07-23T15:49:56;35.00;58.70
569;DHT22;269;48.884;9.192;2022-07-23T15:52:23;34.80;59.10
569;DHT22;269;48.884;9.192;2022-07-23T15:54:50;34.20;59.60
569;DHT22;269;48.884;9.192;2022-07-23T15:57:19;33.80;60.40
569;DHT22;269;48.884;9.192;2022-07-23T15:59:46;33.30;61.50
569;DHT22;269;48.884;9.192;2022-07-23T16:02:13;33.20;61.80
569;DHT22;269;48.884;9.192;2022-07-23T16:04:41;33.10;62.20
569;DHT22;269;48.884;9.192;2022-07-23T16:07:08;32.90;62.40
569;DHT22;269;48.884;9.192;2022-07-23T16:09:35;33.00;62.00
569;DHT22;269;48.884;9.192;2022-07-23T16:12:03;32.90;62.70
569;DHT22;269;48.884;9.192;2022-07-23T16:14:31;32.80;62.70
569;DHT22;269;48.884;9.192;2022-07-23T16:16:59;32.60;62.60
569;DHT22;269;48.884;9.192;2022-07-23T16:19:26;32.20;62.90
569;DHT22;269;48.884;9.192;2022-07-23T16:21:53;31.90;63.90
569;DHT22;269;48.884;9.192;2022-07-23T16:24:20;31.60;64.90
569;DHT22;269;48.884;9.192;2022-07-23T16:26:47;31.30;66.90
569;DHT22;269;48.884;9.192;2022-07-23T16:29:15;31.00;69.00
569;DHT22;269;48.884;9.192;2022-07-23T16:31:43;30.80;69.80
569;DHT22;269;48.884;9.192;2022-07-23T16:34:10;30.80;70.40
569;DHT22;269;48.884;9.192;2022-07-23T16:36:38;30.80;70.70
569;DHT22;269;48.884;9.192;2022-07-23T16:39:05;30.60;71.30
569;DHT22;269;48.884;9.192;2022-07-23T16:41:33;30.60;71.90
569;DHT22;269;48.884;9.192;2022-07-23T16:44:00;30.50;72.20
569;DHT22;269;48.884;9.192;2022-07-23T16:46:27;30.50;71.90
569;DHT22;269;48.884;9.192;2022-07-23T16:48:56;30.40;72.20
569;DHT22;269;48.884;9.192;2022-07-23T16:51:23;30.30;73.00
569;DHT22;269;48.884;9.192;2022-07-23T16:53:50;30.30;73.10
569;DHT22;269;48.884;9.192;2022-07-23T16:56:17;30.00;73.10
569;DHT22;269;48.884;9.192;2022-07-23T16:58:45;29.80;74.30
569;DHT22;269;48.884;9.192;2022-07-23T17:01:12;29.60;74.50
569;DHT22;269;48.884;9.192;2022-07-23T17:03:39;29.40;75.00
569;DHT22;269;48.884;9.192;2022-07-23T17:06:07;29.20;75.70
569;DHT22;269;48.884;9.192;2022-07-23T17:08:35;29.20;76.50
569;DHT22;269;48.884;9.192;2022-07-23T17:11:02;29.10;76.60
569;DHT22;269;48.884;9.192;2022-07-23T17:13:30;29.00;76.90
569;DHT22;269;48.884;9.192;2022-07-23T17:15:57;28.90;77.10
569;DHT22;269;48.884;9.192;2022-07-23T17:18:24;28.80;77.90
569;DHT22;269;48.884;9.192;2022-07-23T17:20:52;28.80;78.40
569;DHT22;269;48.884;9.192;2022-07-23T17:23:21;28.80;78.60
569;DHT22;269;48.884;9.192;2022-07-23T17:25:48;28.80;79.20
569;DHT22;269;48.884;9.192;2022-07-23T17:28:15;28.80;79.50
569;DHT22;269;48.884;9.192;2022-07-23T17:30:42;28.80;79.80
569;DHT22;269;48.884;9.192;2022-07-23T17:33:09;28.80;79.80
569;DHT22;269;48.884;9.192;2022-07-23T17:35:36;28.80;80.20
569;DHT22;269;48.884;9.192;2022-07-23T17:38:03;28.80;80.20
569;DHT22;269;48.884;9.192;2022-07-23T17:40:32;28.80;80.10
569;DHT22;269;48.884;9.192;2022-07-23T17:42:59;28.80;80.10
569;DHT22;269;48.884;9.192;2022-07-23T17:45:27;28.80;80.70
569;DHT22;269;48.884;9.192;2022-07-23T17:47:54;28.80;80.70
569;DHT22;269;48.884;9.192;2022-07-23T17:50:21;28.80;80.90
569;DHT22;269;48.884;9.192;2022-07-23T17:52:51;28.80;80.80
569;DHT22;269;48.884;9.192;2022-07-23T17:55:19;28.80;80.70
569;DHT22;269;48.884;9.192;2022-07-23T17:57:47;28.80;80.90
569;DHT22;269;48.884;9.192;2022-07-23T18:00:24;28.80;81.50
569;DHT22;269;48.884;9.192;2022-07-23T18:02:53;28.80;81.70
569;DHT22;269;48.884;9.192;2022-07-23T18:05:20;28.80;82.00
569;DHT22;269;48.884;9.192;2022-07-23T18:07:47;28.70;82.00
569;DHT22;269;48.884;9.192;2022-07-23T18:10:15;28.60;82.20
569;DHT22;269;48.884;9.192;2022-07-23T18:12:43;28.60;82.40
569;DHT22;269;48.884;9.192;2022-07-23T18:15:12;28.40;82.50
569;DHT22;269;48.884;9.192;2022-07-23T18:17:39;28.40;83.30
569;DHT22;269;48.884;9.192;2022-07-23T18:20:08;28.30;83.50
569;DHT22;269;48.884;9.192;2022-07-23T18:22:35;28.20;83.60
569;DHT22;269;48.884;9.192;2022-07-23T18:25:03;28.20;84.30
569;DHT22;269;48.884;9.192;2022-07-23T18:27:30;28.10;84.10
569;DHT22;269;48.884;9.192;2022-07-23T18:29:57;28.10;84.60
569;DHT22;269;48.884;9.192;2022-07-23T18:32:25;28.00;85.10
569;DHT22;269;48.884;9.192;2022-07-23T18:34:52;28.00;85.50
569;DHT22;269;48.884;9.192;2022-07-23T18:37:21;27.90;85.50
569;DHT22;269;48.884;9.192;2022-07-23T18:39:48;27.80;85.80
569;DHT22;269;48.884;9.192;2022-07-23T18:42:16;27.80;86.20
569;DHT22;269;48.884;9.192;2022-07-23T18:44:43;27.80;86.10
569;DHT22;269;48.884;9.192;2022-07-23T18:47:10;27.70;86.30
569;DHT22;269;48.884;9.192;2022-07-23T18:49:39;27.70;86.40
569;DHT22;269;48.884;9.192;2022-07-23T18:52:06;27.70;86.70
569;DHT22;269;48.884;9.192;2022-07-23T18:54:34;27.70;86.70
569;DHT22;269;48.884;9.192;2022-07-23T18:57:01;27.70;86.80
569;DHT22;269;48.884;9.192;2022-07-23T18:59:28;27.70;86.90
569;DHT22;269;48.884;9.192;2022-07-23T19:01:55;27.70;87.20
569;DHT22;269;48.884;9.192;2022-07-23T19:04:23;27.70;87.20
569;DHT22;269;48.884;9.192;2022-07-23T19:06:51;27.60;87.10
569;DHT22;269;48.884;9.192;2022-07-23T19:09:19;27.60;87.40
569;DHT22;269;48.884;9.192;2022-07-23T19:11:46;27.60;87.70
569;DHT22;269;48.884;9.192;2022-07-23T19:14:13;27.60;87.80
569;DHT22;269;48.884;9.192;2022-07-23T19:16:41;27.50;87.90
569;DHT22;269;48.884;9.192;2022-07-23T19:19:08;27.50;88.20
569;DHT22;269;48.884;9.192;2022-07-23T19:21:35;27.50;88.30
569;DHT22;269;48.884;9.192;2022-07-23T19:24:05;27.50;88.70
569;DHT22;269;48.884;9.192;2022-07-23T19:26:32;27.40;88.80
569;DHT22;269;48.884;9.192;2022-07-23T19:28:59;27.40;89.20
569;DHT22;269;48.884;9.192;2022-07-23T19:31:26;27.40;89.10
569;DHT22;269;48.884;9.192;2022-07-23T19:33:53;27.30;89.10